UPSVAC Airport Information Service

Chicago Rockford International Airport (800-899)

ICAO: KRFD Country: United States
Latitude: 42.1953 Longitude: -89.0972
Latest Arrival : UPS489 (PANC-KRFD) Latest Departure : UPS3277 (KRFD-KDEN)


WX CaptureLIVE
Data provided by noaa.gov | Fetched at 13:33:21

METAR : KRFD 141254Z 28009KT 10SM FEW085 03/M04 A3015 RMK AO2 SLP213 T00331044

TAF : KRFD 141120Z 1412/1512 26008KT P6SM BKN040 FM141400 29012G19KT P6SM BKN040 FM150800 32014G24KT P6SM BKN020


Runway Data for KRFD
Data provided by openaviationdata.com

Runway ID Mag Var Hdg Length Elevation Surface ILS Freq ILS Id ILS Slope
1 0 8202 ft 742 ft Asphalt 109.3 IRFD 2
7 0 66° 9992 ft 742 ft Asphalt 109.55 IUDY 3
19 0 186° 8202 ft 742 ft Asphalt -- -- --
25 0 246° 9992 ft 742 ft Asphalt -- -- --

Chicago Rockford International Airport (800-899), United States
Use only for reference purposes



Not for navigational purposes.